Terminal Aerodrome Forecast
Issued by NWS Wilmington, OH

Current Version | Previous Version | Graphics & Text | Print | Product List | Glossary On
Versions: 1 2 3 4 5 6 7 8 9 10 11 12 13 14 15 16 17 18 19 20 21 22
000
FTUS41 KILN 260942 AAB
TAFDAY
TAF AMD
KDAY 260942Z 2610/2706 30010KT P6SM BKN025
     FM261100 28007KT P6SM SCT035
     FM261400 21009KT P6SM FEW250
     FM270100 20007KT P6SM BKN130=

USA.gov is the U.S. government's official web portal to all federal, state and local government web resources and services.